sensor_id;sensor_type;location;lat;lon;timestamp;P1;durP1;ratioP1;P2;durP2;ratioP2
32407;SDS011;18869;55.970;37.502;2022-11-21T00:01:19;22.50;;;13.33;;
32407;SDS011;18869;55.970;37.502;2022-11-21T00:03:50;20.63;;;13.00;;
32407;SDS011;18869;55.970;37.502;2022-11-21T00:06:18;18.40;;;13.77;;
32407;SDS011;18869;55.970;37.502;2022-11-21T00:08:46;19.73;;;14.20;;
32407;SDS011;18869;55.970;37.502;2022-11-21T00:11:13;18.50;;;12.10;;
32407;SDS011;18869;55.970;37.502;2022-11-21T00:13:42;22.17;;;14.03;;
32407;SDS011;18869;55.970;37.502;2022-11-21T00:16:13;19.13;;;12.40;;
32407;SDS011;18869;55.970;37.502;2022-11-21T00:18:42;21.30;;;13.50;;
32407;SDS011;18869;55.970;37.502;2022-11-21T00:21:12;20.73;;;13.67;;
32407;SDS011;18869;55.970;37.502;2022-11-21T00:23:50;20.33;;;13.33;;
32407;SDS011;18869;55.970;37.502;2022-11-21T00:26:18;21.73;;;13.97;;
32407;SDS011;18869;55.970;37.502;2022-11-21T00:28:46;20.53;;;13.90;;
32407;SDS011;18869;55.970;37.502;2022-11-21T00:31:18;18.20;;;12.60;;
32407;SDS011;18869;55.970;37.502;2022-11-21T00:33:46;15.60;;;12.87;;
32407;SDS011;18869;55.970;37.502;2022-11-21T00:36:15;19.30;;;13.20;;
32407;SDS011;18869;55.970;37.502;2022-11-21T00:38:43;20.07;;;13.17;;
32407;SDS011;18869;55.970;37.502;2022-11-21T00:41:10;18.00;;;13.10;;
32407;SDS011;18869;55.970;37.502;2022-11-21T00:43:40;19.57;;;14.10;;
32407;SDS011;18869;55.970;37.502;2022-11-21T00:46:08;22.30;;;12.93;;
32407;SDS011;18869;55.970;37.502;2022-11-21T00:48:36;19.27;;;12.10;;
32407;SDS011;18869;55.970;37.502;2022-11-21T00:51:03;20.07;;;12.40;;
32407;SDS011;18869;55.970;37.502;2022-11-21T00:53:33;18.73;;;13.07;;
32407;SDS011;18869;55.970;37.502;2022-11-21T00:56:03;21.03;;;12.50;;
32407;SDS011;18869;55.970;37.502;2022-11-21T00:58:31;20.87;;;13.67;;
32407;SDS011;18869;55.970;37.502;2022-11-21T01:01:03;18.50;;;12.63;;
32407;SDS011;18869;55.970;37.502;2022-11-21T01:03:34;23.77;;;13.53;;
32407;SDS011;18869;55.970;37.502;2022-11-21T01:06:05;15.80;;;12.40;;
32407;SDS011;18869;55.970;37.502;2022-11-21T01:08:36;18.97;;;13.00;;
32407;SDS011;18869;55.970;37.502;2022-11-21T01:11:06;18.00;;;12.97;;
32407;SDS011;18869;55.970;37.502;2022-11-21T01:13:39;19.97;;;12.67;;
32407;SDS011;18869;55.970;37.502;2022-11-21T01:16:08;16.70;;;12.23;;
32407;SDS011;18869;55.970;37.502;2022-11-21T01:18:40;20.27;;;13.63;;
32407;SDS011;18869;55.970;37.502;2022-11-21T01:21:12;20.43;;;13.33;;
32407;SDS011;18869;55.970;37.502;2022-11-21T01:23:46;17.57;;;11.87;;
32407;SDS011;18869;55.970;37.502;2022-11-21T01:26:14;17.23;;;12.63;;
32407;SDS011;18869;55.970;37.502;2022-11-21T01:28:43;19.43;;;12.60;;
32407;SDS011;18869;55.970;37.502;2022-11-21T01:31:12;17.17;;;12.30;;
32407;SDS011;18869;55.970;37.502;2022-11-21T01:33:40;18.37;;;12.23;;
32407;SDS011;18869;55.970;37.502;2022-11-21T01:36:10;18.33;;;13.10;;
32407;SDS011;18869;55.970;37.502;2022-11-21T01:38:38;19.07;;;12.67;;
32407;SDS011;18869;55.970;37.502;2022-11-21T01:41:11;24.37;;;14.43;;
32407;SDS011;18869;55.970;37.502;2022-11-21T01:43:42;21.33;;;13.03;;
32407;SDS011;18869;55.970;37.502;2022-11-21T01:48:59;22.47;;;13.47;;
32407;SDS011;18869;55.970;37.502;2022-11-21T01:51:30;20.80;;;12.70;;
32407;SDS011;18869;55.970;37.502;2022-11-21T01:54:03;19.43;;;13.43;;
32407;SDS011;18869;55.970;37.502;2022-11-21T01:56:39;23.17;;;14.37;;
32407;SDS011;18869;55.970;37.502;2022-11-21T01:59:11;22.27;;;13.93;;
32407;SDS011;18869;55.970;37.502;2022-11-21T02:01:45;21.60;;;13.90;;
32407;SDS011;18869;55.970;37.502;2022-11-21T02:04:26;19.57;;;13.83;;
32407;SDS011;18869;55.970;37.502;2022-11-21T02:06:59;20.87;;;13.73;;
32407;SDS011;18869;55.970;37.502;2022-11-21T02:09:29;18.37;;;11.77;;
32407;SDS011;18869;55.970;37.502;2022-11-21T02:12:00;18.50;;;12.60;;
32407;SDS011;18869;55.970;37.502;2022-11-21T02:14:54;20.33;;;13.47;;
32407;SDS011;18869;55.970;37.502;2022-11-21T02:17:27;19.43;;;13.33;;
32407;SDS011;18869;55.970;37.502;2022-11-21T02:19:56;20.30;;;13.33;;
32407;SDS011;18869;55.970;37.502;2022-11-21T02:22:31;21.60;;;12.80;;
32407;SDS011;18869;55.970;37.502;2022-11-21T02:25:13;18.00;;;12.27;;
32407;SDS011;18869;55.970;37.502;2022-11-21T02:27:47;20.50;;;13.33;;
32407;SDS011;18869;55.970;37.502;2022-11-21T02:30:22;21.23;;;13.57;;
32407;SDS011;18869;55.970;37.502;2022-11-21T02:32:54;19.73;;;13.53;;
32407;SDS011;18869;55.970;37.502;2022-11-21T02:35:29;21.67;;;14.10;;
32407;SDS011;18869;55.970;37.502;2022-11-21T02:38:00;19.67;;;12.47;;
32407;SDS011;18869;55.970;37.502;2022-11-21T02:40:36;21.47;;;13.63;;
32407;SDS011;18869;55.970;37.502;2022-11-21T02:43:08;20.67;;;14.73;;
32407;SDS011;18869;55.970;37.502;2022-11-21T02:46:01;20.47;;;13.30;;
32407;SDS011;18869;55.970;37.502;2022-11-21T02:48:28;21.93;;;14.07;;
32407;SDS011;18869;55.970;37.502;2022-11-21T02:50:56;20.13;;;13.77;;
32407;SDS011;18869;55.970;37.502;2022-11-21T02:53:24;22.07;;;14.67;;
32407;SDS011;18869;55.970;37.502;2022-11-21T02:55:53;22.63;;;13.40;;
32407;SDS011;18869;55.970;37.502;2022-11-21T02:58:25;21.00;;;14.90;;
32407;SDS011;18869;55.970;37.502;2022-11-21T03:00:55;19.03;;;13.90;;
32407;SDS011;18869;55.970;37.502;2022-11-21T03:03:29;23.27;;;14.80;;
32407;SDS011;18869;55.970;37.502;2022-11-21T03:05:57;19.97;;;13.47;;
32407;SDS011;18869;55.970;37.502;2022-11-21T03:08:29;20.93;;;13.50;;
32407;SDS011;18869;55.970;37.502;2022-11-21T03:10:58;19.97;;;13.63;;
32407;SDS011;18869;55.970;37.502;2022-11-21T03:13:26;19.30;;;13.87;;
32407;SDS011;18869;55.970;37.502;2022-11-21T03:15:57;22.17;;;14.20;;
32407;SDS011;18869;55.970;37.502;2022-11-21T03:18:29;19.77;;;13.67;;
32407;SDS011;18869;55.970;37.502;2022-11-21T03:20:58;21.47;;;14.07;;
32407;SDS011;18869;55.970;37.502;2022-11-21T03:23:29;18.77;;;13.70;;
32407;SDS011;18869;55.970;37.502;2022-11-21T03:25:59;21.57;;;15.77;;
32407;SDS011;18869;55.970;37.502;2022-11-21T03:28:28;20.80;;;14.40;;
32407;SDS011;18869;55.970;37.502;2022-11-21T03:31:02;21.10;;;14.03;;
32407;SDS011;18869;55.970;37.502;2022-11-21T03:33:30;19.37;;;13.80;;
32407;SDS011;18869;55.970;37.502;2022-11-21T03:35:58;21.73;;;14.77;;
32407;SDS011;18869;55.970;37.502;2022-11-21T03:38:30;19.30;;;14.27;;
32407;SDS011;18869;55.970;37.502;2022-11-21T03:41:03;18.33;;;13.43;;
32407;SDS011;18869;55.970;37.502;2022-11-21T03:43:51;21.70;;;14.73;;
32407;SDS011;18869;55.970;37.502;2022-11-21T03:46:19;21.03;;;15.87;;
32407;SDS011;18869;55.970;37.502;2022-11-21T03:48:47;22.33;;;15.63;;
32407;SDS011;18869;55.970;37.502;2022-11-21T03:51:14;19.23;;;14.23;;
32407;SDS011;18869;55.970;37.502;2022-11-21T03:53:44;21.10;;;14.70;;
32407;SDS011;18869;55.970;37.502;2022-11-21T03:56:21;20.43;;;14.60;;
32407;SDS011;18869;55.970;37.502;2022-11-21T03:58:49;20.00;;;13.60;;
32407;SDS011;18869;55.970;37.502;2022-11-21T04:01:17;21.10;;;14.57;;
32407;SDS011;18869;55.970;37.502;2022-11-21T04:03:45;18.93;;;14.40;;
32407;SDS011;18869;55.970;37.502;2022-11-21T04:06:24;21.97;;;15.50;;
32407;SDS011;18869;55.970;37.502;2022-11-21T04:08:56;22.80;;;14.43;;
32407;SDS011;18869;55.970;37.502;2022-11-21T04:11:27;21.57;;;14.73;;
32407;SDS011;18869;55.970;37.502;2022-11-21T04:13:54;23.20;;;15.83;;
32407;SDS011;18869;55.970;37.502;2022-11-21T04:16:32;21.70;;;13.93;;
32407;SDS011;18869;55.970;37.502;2022-11-21T04:18:59;20.80;;;15.17;;
32407;SDS011;18869;55.970;37.502;2022-11-21T04:21:27;23.33;;;16.13;;
32407;SDS011;18869;55.970;37.502;2022-11-21T04:23:55;20.23;;;14.47;;
32407;SDS011;18869;55.970;37.502;2022-11-21T04:26:22;24.90;;;14.90;;
32407;SDS011;18869;55.970;37.502;2022-11-21T04:28:52;24.00;;;16.40;;
32407;SDS011;18869;55.970;37.502;2022-11-21T04:31:19;22.30;;;15.80;;
32407;SDS011;18869;55.970;37.502;2022-11-21T04:33:47;20.13;;;14.20;;
32407;SDS011;18869;55.970;37.502;2022-11-21T04:36:14;21.27;;;14.77;;
32407;SDS011;18869;55.970;37.502;2022-11-21T04:38:45;20.30;;;13.57;;
32407;SDS011;18869;55.970;37.502;2022-11-21T04:41:12;18.27;;;13.93;;
32407;SDS011;18869;55.970;37.502;2022-11-21T04:43:40;22.70;;;15.93;;
32407;SDS011;18869;55.970;37.502;2022-11-21T04:46:09;18.83;;;13.27;;
32407;SDS011;18869;55.970;37.502;2022-11-21T04:48:37;22.37;;;15.20;;
32407;SDS011;18869;55.970;37.502;2022-11-21T04:51:05;20.03;;;15.30;;
32407;SDS011;18869;55.970;37.502;2022-11-21T04:53:33;20.90;;;14.83;;
32407;SDS011;18869;55.970;37.502;2022-11-21T04:56:02;18.93;;;13.53;;
32407;SDS011;18869;55.970;37.502;2022-11-21T04:58:33;23.40;;;16.27;;
32407;SDS011;18869;55.970;37.502;2022-11-21T05:01:06;24.40;;;14.77;;
32407;SDS011;18869;55.970;37.502;2022-11-21T05:03:37;22.60;;;15.80;;
32407;SDS011;18869;55.970;37.502;2022-11-21T05:06:04;22.77;;;15.43;;
32407;SDS011;18869;55.970;37.502;2022-11-21T05:08:33;21.53;;;14.20;;
32407;SDS011;18869;55.970;37.502;2022-11-21T05:11:00;20.97;;;15.30;;
32407;SDS011;18869;55.970;37.502;2022-11-21T05:13:45;18.60;;;14.03;;
32407;SDS011;18869;55.970;37.502;2022-11-21T05:16:13;19.93;;;15.37;;
32407;SDS011;18869;55.970;37.502;2022-11-21T05:18:42;20.17;;;13.67;;
32407;SDS011;18869;55.970;37.502;2022-11-21T05:21:22;17.03;;;13.73;;
32407;SDS011;18869;55.970;37.502;2022-11-21T05:23:57;19.67;;;13.90;;
32407;SDS011;18869;55.970;37.502;2022-11-21T05:26:30;19.20;;;13.63;;
32407;SDS011;18869;55.970;37.502;2022-11-21T05:29:02;20.00;;;13.60;;
32407;SDS011;18869;55.970;37.502;2022-11-21T05:31:34;20.50;;;14.70;;
32407;SDS011;18869;55.970;37.502;2022-11-21T05:34:08;21.93;;;13.87;;
32407;SDS011;18869;55.970;37.502;2022-11-21T05:36:35;18.97;;;14.43;;
32407;SDS011;18869;55.970;37.502;2022-11-21T05:39:03;19.77;;;14.57;;
32407;SDS011;18869;55.970;37.502;2022-11-21T05:41:31;19.67;;;14.47;;
32407;SDS011;18869;55.970;37.502;2022-11-21T05:43:59;20.23;;;13.97;;
32407;SDS011;18869;55.970;37.502;2022-11-21T05:46:25;19.90;;;13.97;;
32407;SDS011;18869;55.970;37.502;2022-11-21T05:48:53;18.90;;;13.77;;
32407;SDS011;18869;55.970;37.502;2022-11-21T05:51:22;21.40;;;14.90;;
32407;SDS011;18869;55.970;37.502;2022-11-21T05:53:50;18.20;;;12.83;;
32407;SDS011;18869;55.970;37.502;2022-11-21T05:56:18;17.73;;;13.47;;
32407;SDS011;18869;55.970;37.502;2022-11-21T05:58:46;22.53;;;14.33;;
32407;SDS011;18869;55.970;37.502;2022-11-21T06:01:13;16.40;;;12.97;;
32407;SDS011;18869;55.970;37.502;2022-11-21T06:04:01;18.17;;;13.50;;
32407;SDS011;18869;55.970;37.502;2022-11-21T06:06:30;18.83;;;13.37;;
32407;SDS011;18869;55.970;37.502;2022-11-21T06:08:58;17.17;;;14.00;;
32407;SDS011;18869;55.970;37.502;2022-11-21T06:11:26;20.70;;;14.37;;
32407;SDS011;18869;55.970;37.502;2022-11-21T06:13:54;20.20;;;13.40;;
32407;SDS011;18869;55.970;37.502;2022-11-21T06:16:24;17.10;;;12.87;;
32407;SDS011;18869;55.970;37.502;2022-11-21T06:18:53;17.60;;;13.10;;
32407;SDS011;18869;55.970;37.502;2022-11-21T06:21:21;19.60;;;15.00;;
32407;SDS011;18869;55.970;37.502;2022-11-21T06:23:52;20.03;;;12.63;;
32407;SDS011;18869;55.970;37.502;2022-11-21T06:26:20;16.97;;;13.83;;
32407;SDS011;18869;55.970;37.502;2022-11-21T06:28:51;18.20;;;13.50;;
32407;SDS011;18869;55.970;37.502;2022-11-21T06:31:19;15.23;;;13.07;;
32407;SDS011;18869;55.970;37.502;2022-11-21T06:33:51;19.10;;;12.50;;
32407;SDS011;18869;55.970;37.502;2022-11-21T06:36:22;18.03;;;12.47;;
32407;SDS011;18869;55.970;37.502;2022-11-21T06:38:54;18.70;;;12.70;;
32407;SDS011;18869;55.970;37.502;2022-11-21T06:41:22;16.40;;;12.03;;
32407;SDS011;18869;55.970;37.502;2022-11-21T06:43:51;19.47;;;13.30;;
32407;SDS011;18869;55.970;37.502;2022-11-21T06:46:19;17.50;;;13.03;;
32407;SDS011;18869;55.970;37.502;2022-11-21T06:48:46;19.93;;;12.27;;
32407;SDS011;18869;55.970;37.502;2022-11-21T06:51:15;16.60;;;12.40;;
32407;SDS011;18869;55.970;37.502;2022-11-21T06:53:46;16.60;;;12.83;;
32407;SDS011;18869;55.970;37.502;2022-11-21T06:56:22;15.13;;;12.83;;
32407;SDS011;18869;55.970;37.502;2022-11-21T06:58:50;20.37;;;14.10;;
32407;SDS011;18869;55.970;37.502;2022-11-21T07:01:18;22.10;;;15.20;;
32407;SDS011;18869;55.970;37.502;2022-11-21T07:03:49;20.30;;;16.97;;
32407;SDS011;18869;55.970;37.502;2022-11-21T07:06:16;20.10;;;15.03;;
32407;SDS011;18869;55.970;37.502;2022-11-21T07:08:43;20.67;;;14.67;;
32407;SDS011;18869;55.970;37.502;2022-11-21T07:11:12;17.50;;;13.37;;
32407;SDS011;18869;55.970;37.502;2022-11-21T07:13:42;17.57;;;13.10;;
32407;SDS011;18869;55.970;37.502;2022-11-21T07:16:10;14.57;;;11.20;;
32407;SDS011;18869;55.970;37.502;2022-11-21T07:18:40;16.23;;;11.63;;
32407;SDS011;18869;55.970;37.502;2022-11-21T07:21:08;20.67;;;14.50;;
32407;SDS011;18869;55.970;37.502;2022-11-21T07:23:36;17.70;;;12.93;;
32407;SDS011;18869;55.970;37.502;2022-11-21T07:26:04;18.00;;;13.13;;
32407;SDS011;18869;55.970;37.502;2022-11-21T07:28:33;16.87;;;12.03;;
32407;SDS011;18869;55.970;37.502;2022-11-21T07:31:02;17.43;;;12.30;;
32407;SDS011;18869;55.970;37.502;2022-11-21T07:33:30;19.53;;;14.20;;
32407;SDS011;18869;55.970;37.502;2022-11-21T07:35:58;18.90;;;12.00;;
32407;SDS011;18869;55.970;37.502;2022-11-21T07:38:25;20.37;;;13.33;;
32407;SDS011;18869;55.970;37.502;2022-11-21T07:40:54;19.63;;;12.50;;
32407;SDS011;18869;55.970;37.502;2022-11-21T07:43:24;17.60;;;11.17;;
32407;SDS011;18869;55.970;37.502;2022-11-21T07:45:53;13.40;;;11.30;;
32407;SDS011;18869;55.970;37.502;2022-11-21T07:48:22;14.60;;;11.10;;
32407;SDS011;18869;55.970;37.502;2022-11-21T07:50:49;14.83;;;11.37;;
32407;SDS011;18869;55.970;37.502;2022-11-21T07:53:17;14.83;;;11.43;;
32407;SDS011;18869;55.970;37.502;2022-11-21T07:55:45;16.30;;;11.03;;
32407;SDS011;18869;55.970;37.502;2022-11-21T07:58:14;13.80;;;10.67;;
32407;SDS011;18869;55.970;37.502;2022-11-21T08:00:42;16.10;;;11.27;;
32407;SDS011;18869;55.970;37.502;2022-11-21T08:03:10;15.27;;;10.33;;
32407;SDS011;18869;55.970;37.502;2022-11-21T08:05:40;14.97;;;10.43;;
32407;SDS011;18869;55.970;37.502;2022-11-21T08:08:09;15.03;;;10.93;;
32407;SDS011;18869;55.970;37.502;2022-11-21T08:10:37;14.10;;;9.87;;
32407;SDS011;18869;55.970;37.502;2022-11-21T08:13:06;16.50;;;10.20;;
32407;SDS011;18869;55.970;37.502;2022-11-21T08:15:33;14.77;;;11.27;;
32407;SDS011;18869;55.970;37.502;2022-11-21T08:18:06;16.70;;;11.87;;
32407;SDS011;18869;55.970;37.502;2022-11-21T08:20:33;12.47;;;10.37;;
32407;SDS011;18869;55.970;37.502;2022-11-21T08:23:04;17.57;;;11.03;;
32407;SDS011;18869;55.970;37.502;2022-11-21T08:25:32;14.20;;;11.37;;
32407;SDS011;18869;55.970;37.502;2022-11-21T08:27:59;12.97;;;11.10;;
32407;SDS011;18869;55.970;37.502;2022-11-21T08:30:28;13.23;;;10.10;;
32407;SDS011;18869;55.970;37.502;2022-11-21T08:32:57;14.73;;;11.00;;
32407;SDS011;18869;55.970;37.502;2022-11-21T08:35:24;15.63;;;11.50;;
32407;SDS011;18869;55.970;37.502;2022-11-21T08:37:54;17.60;;;11.93;;
32407;SDS011;18869;55.970;37.502;2022-11-21T08:40:23;18.40;;;12.00;;
32407;SDS011;18869;55.970;37.502;2022-11-21T08:42:55;15.17;;;10.23;;
32407;SDS011;18869;55.970;37.502;2022-11-21T08:45:23;13.77;;;10.30;;
32407;SDS011;18869;55.970;37.502;2022-11-21T08:47:51;13.60;;;11.30;;
32407;SDS011;18869;55.970;37.502;2022-11-21T08:50:19;13.33;;;10.00;;
32407;SDS011;18869;55.970;37.502;2022-11-21T08:52:47;12.77;;;9.33;;
32407;SDS011;18869;55.970;37.502;2022-11-21T08:55:15;13.20;;;10.50;;
32407;SDS011;18869;55.970;37.502;2022-11-21T08:57:44;16.23;;;12.27;;
32407;SDS011;18869;55.970;37.502;2022-11-21T09:00:12;14.10;;;11.17;;
32407;SDS011;18869;55.970;37.502;2022-11-21T09:02:40;17.73;;;12.43;;
32407;SDS011;18869;55.970;37.502;2022-11-21T09:05:08;17.07;;;11.57;;
32407;SDS011;18869;55.970;37.502;2022-11-21T09:07:36;15.73;;;11.27;;
32407;SDS011;18869;55.970;37.502;2022-11-21T09:10:06;15.40;;;11.30;;
32407;SDS011;18869;55.970;37.502;2022-11-21T09:12:34;14.83;;;10.30;;
32407;SDS011;18869;55.970;37.502;2022-11-21T09:15:03;13.33;;;10.07;;
32407;SDS011;18869;55.970;37.502;2022-11-21T09:17:59;13.47;;;10.50;;
32407;SDS011;18869;55.970;37.502;2022-11-21T09:20:30;12.97;;;10.33;;
32407;SDS011;18869;55.970;37.502;2022-11-21T09:23:02;11.57;;;9.57;;
32407;SDS011;18869;55.970;37.502;2022-11-21T09:25:30;14.67;;;10.17;;
32407;SDS011;18869;55.970;37.502;2022-11-21T09:27:58;12.63;;;9.87;;
32407;SDS011;18869;55.970;37.502;2022-11-21T09:30:28;13.03;;;9.63;;
32407;SDS011;18869;55.970;37.502;2022-11-21T09:32:58;14.77;;;12.20;;
32407;SDS011;18869;55.970;37.502;2022-11-21T09:35:26;15.43;;;11.07;;
32407;SDS011;18869;55.970;37.502;2022-11-21T09:37:53;13.53;;;10.10;;
32407;SDS011;18869;55.970;37.502;2022-11-21T09:40:21;23.30;;;14.30;;
32407;SDS011;18869;55.970;37.502;2022-11-21T09:42:53;25.30;;;17.17;;
32407;SDS011;18869;55.970;37.502;2022-11-21T09:45:29;25.13;;;17.87;;
32407;SDS011;18869;55.970;37.502;2022-11-21T09:48:00;23.40;;;17.43;;
32407;SDS011;18869;55.970;37.502;2022-11-21T09:50:30;26.33;;;17.47;;
32407;SDS011;18869;55.970;37.502;2022-11-21T09:53:01;15.73;;;12.37;;
32407;SDS011;18869;55.970;37.502;2022-11-21T09:55:35;16.67;;;13.07;;
32407;SDS011;18869;55.970;37.502;2022-11-21T09:58:10;16.20;;;11.23;;
32407;SDS011;18869;55.970;37.502;2022-11-21T10:00:44;14.53;;;10.90;;
32407;SDS011;18869;55.970;37.502;2022-11-21T10:03:12;14.17;;;9.77;;
32407;SDS011;18869;55.970;37.502;2022-11-21T10:05:42;11.60;;;9.73;;
32407;SDS011;18869;55.970;37.502;2022-11-21T10:08:16;12.40;;;9.60;;
32407;SDS011;18869;55.970;37.502;2022-11-21T10:10:54;13.90;;;10.57;;
32407;SDS011;18869;55.970;37.502;2022-11-21T10:13:27;14.83;;;9.93;;
32407;SDS011;18869;55.970;37.502;2022-11-21T10:16:05;13.23;;;9.13;;
32407;SDS011;18869;55.970;37.502;2022-11-21T10:21:35;12.50;;;9.90;;
32407;SDS011;18869;55.970;37.502;2022-11-21T10:24:15;10.20;;;9.20;;
32407;SDS011;18869;55.970;37.502;2022-11-21T10:26:54;10.67;;;8.93;;
32407;SDS011;18869;55.970;37.502;2022-11-21T10:29:29;11.37;;;9.37;;
32407;SDS011;18869;55.970;37.502;2022-11-21T10:32:02;11.73;;;8.67;;
32407;SDS011;18869;55.970;37.502;2022-11-21T10:34:38;12.97;;;9.10;;
32407;SDS011;18869;55.970;37.502;2022-11-21T10:37:08;11.83;;;8.73;;
32407;SDS011;18869;55.970;37.502;2022-11-21T10:39:39;11.63;;;9.00;;
32407;SDS011;18869;55.970;37.502;2022-11-21T10:42:11;11.27;;;9.03;;
32407;SDS011;18869;55.970;37.502;2022-11-21T10:44:44;11.40;;;9.60;;
32407;SDS011;18869;55.970;37.502;2022-11-21T10:47:32;10.93;;;8.53;;
32407;SDS011;18869;55.970;37.502;2022-11-21T10:50:04;12.43;;;9.13;;
32407;SDS011;18869;55.970;37.502;2022-11-21T10:52:50;10.77;;;8.70;;
32407;SDS011;18869;55.970;37.502;2022-11-21T10:55:54;12.67;;;9.87;;
32407;SDS011;18869;55.970;37.502;2022-11-21T10:58:27;13.67;;;10.00;;
32407;SDS011;18869;55.970;37.502;2022-11-21T11:01:02;10.83;;;9.63;;
32407;SDS011;18869;55.970;37.502;2022-11-21T11:03:31;11.83;;;9.50;;
32407;SDS011;18869;55.970;37.502;2022-11-21T11:05:58;12.63;;;8.80;;
32407;SDS011;18869;55.970;37.502;2022-11-21T11:08:26;12.87;;;9.67;;
32407;SDS011;18869;55.970;37.502;2022-11-21T11:11:00;11.53;;;9.77;;
32407;SDS011;18869;55.970;37.502;2022-11-21T11:13:29;13.50;;;9.60;;
32407;SDS011;18869;55.970;37.502;2022-11-21T11:16:04;13.43;;;10.00;;
32407;SDS011;18869;55.970;37.502;2022-11-21T11:18:35;11.37;;;9.67;;
32407;SDS011;18869;55.970;37.502;2022-11-21T11:21:12;15.47;;;10.70;;
32407;SDS011;18869;55.970;37.502;2022-11-21T11:23:43;15.83;;;11.37;;
32407;SDS011;18869;55.970;37.502;2022-11-21T11:26:19;12.60;;;9.70;;
32407;SDS011;18869;55.970;37.502;2022-11-21T11:28:49;16.83;;;10.83;;
32407;SDS011;18869;55.970;37.502;2022-11-21T11:32:08;13.63;;;10.10;;
32407;SDS011;18869;55.970;37.502;2022-11-21T11:38:19;11.53;;;9.70;;
32407;SDS011;18869;55.970;37.502;2022-11-21T11:40:56;12.47;;;9.30;;
32407;SDS011;18869;55.970;37.502;2022-11-21T11:43:41;12.37;;;9.27;;
32407;SDS011;18869;55.970;37.502;2022-11-21T11:46:32;12.80;;;9.60;;
32407;SDS011;18869;55.970;37.502;2022-11-21T11:49:25;14.20;;;10.33;;
32407;SDS011;18869;55.970;37.502;2022-11-21T11:52:18;11.30;;;9.03;;
32407;SDS011;18869;55.970;37.502;2022-11-21T11:54:51;10.77;;;9.33;;
32407;SDS011;18869;55.970;37.502;2022-11-21T11:57:26;12.00;;;10.53;;
32407;SDS011;18869;55.970;37.502;2022-11-21T12:00:03;13.07;;;10.67;;
32407;SDS011;18869;55.970;37.502;2022-11-21T12:02:40;14.83;;;10.50;;
32407;SDS011;18869;55.970;37.502;2022-11-21T12:15:31;10.10;;;8.27;;
32407;SDS011;18869;55.970;37.502;2022-11-21T12:18:25;11.30;;;9.73;;
32407;SDS011;18869;55.970;37.502;2022-11-21T12:21:26;14.67;;;10.23;;
32407;SDS011;18869;55.970;37.502;2022-11-21T12:24:02;12.70;;;10.47;;
32407;SDS011;18869;55.970;37.502;2022-11-21T12:26:33;11.10;;;9.77;;
32407;SDS011;18869;55.970;37.502;2022-11-21T12:35:03;15.07;;;11.17;;
32407;SDS011;18869;55.970;37.502;2022-11-21T12:38:44;11.67;;;10.00;;
32407;SDS011;18869;55.970;37.502;2022-11-21T12:41:34;13.67;;;9.37;;
32407;SDS011;18869;55.970;37.502;2022-11-21T12:44:25;13.87;;;10.23;;
32407;SDS011;18869;55.970;37.502;2022-11-21T12:47:01;16.97;;;10.77;;
32407;SDS011;18869;55.970;37.502;2022-11-21T12:49:38;13.03;;;11.00;;
32407;SDS011;18869;55.970;37.502;2022-11-21T12:52:32;11.20;;;9.80;;
32407;SDS011;18869;55.970;37.502;2022-11-21T12:55:21;15.20;;;11.43;;
32407;SDS011;18869;55.970;37.502;2022-11-21T12:58:02;12.40;;;11.00;;
32407;SDS011;18869;55.970;37.502;2022-11-21T13:00:35;14.30;;;12.33;;
32407;SDS011;18869;55.970;37.502;2022-11-21T13:06:13;13.83;;;10.27;;
32407;SDS011;18869;55.970;37.502;2022-11-21T13:08:45;13.53;;;10.67;;
32407;SDS011;18869;55.970;37.502;2022-11-21T13:11:20;13.93;;;10.10;;
32407;SDS011;18869;55.970;37.502;2022-11-21T13:14:28;16.77;;;11.47;;
32407;SDS011;18869;55.970;37.502;2022-11-21T13:17:17;16.07;;;11.10;;
32407;SDS011;18869;55.970;37.502;2022-11-21T13:19:53;16.93;;;11.23;;
32407;SDS011;18869;55.970;37.502;2022-11-21T13:25:36;14.10;;;11.77;;
32407;SDS011;18869;55.970;37.502;2022-11-21T13:31:00;15.73;;;12.83;;
32407;SDS011;18869;55.970;37.502;2022-11-21T13:33:46;15.83;;;12.87;;
32407;SDS011;18869;55.970;37.502;2022-11-21T13:36:38;16.47;;;11.50;;
32407;SDS011;18869;55.970;37.502;2022-11-21T13:45:41;16.93;;;12.37;;
32407;SDS011;18869;55.970;37.502;2022-11-21T13:48:24;13.63;;;11.20;;
32407;SDS011;18869;55.970;37.502;2022-11-21T13:54:21;14.70;;;10.83;;
32407;SDS011;18869;55.970;37.502;2022-11-21T14:00:20;15.53;;;11.73;;
32407;SDS011;18869;55.970;37.502;2022-11-21T14:03:04;14.50;;;11.00;;
32407;SDS011;18869;55.970;37.502;2022-11-21T14:05:55;13.20;;;10.53;;
32407;SDS011;18869;55.970;37.502;2022-11-21T14:08:29;13.47;;;11.50;;
32407;SDS011;18869;55.970;37.502;2022-11-21T14:10:57;15.13;;;12.10;;
32407;SDS011;18869;55.970;37.502;2022-11-21T14:13:26;16.13;;;12.27;;
32407;SDS011;18869;55.970;37.502;2022-11-21T14:16:02;12.20;;;10.90;;
32407;SDS011;18869;55.970;37.502;2022-11-21T14:18:37;14.93;;;12.23;;
32407;SDS011;18869;55.970;37.502;2022-11-21T14:21:15;14.77;;;10.90;;
32407;SDS011;18869;55.970;37.502;2022-11-21T14:23:44;13.23;;;10.70;;
32407;SDS011;18869;55.970;37.502;2022-11-21T14:26:22;16.13;;;11.93;;
32407;SDS011;18869;55.970;37.502;2022-11-21T14:29:15;13.07;;;11.30;;
32407;SDS011;18869;55.970;37.502;2022-11-21T14:31:55;14.93;;;12.37;;
32407;SDS011;18869;55.970;37.502;2022-11-21T14:34:35;15.47;;;11.83;;
32407;SDS011;18869;55.970;37.502;2022-11-21T14:37:05;13.10;;;11.43;;
32407;SDS011;18869;55.970;37.502;2022-11-21T14:40:02;13.67;;;11.67;;
32407;SDS011;18869;55.970;37.502;2022-11-21T14:42:42;14.67;;;10.93;;
32407;SDS011;18869;55.970;37.502;2022-11-21T14:45:14;15.07;;;12.03;;
32407;SDS011;18869;55.970;37.502;2022-11-21T14:48:19;13.60;;;11.83;;
32407;SDS011;18869;55.970;37.502;2022-11-21T14:51:01;15.50;;;11.70;;
32407;SDS011;18869;55.970;37.502;2022-11-21T14:56:24;16.20;;;11.83;;
32407;SDS011;18869;55.970;37.502;2022-11-21T14:59:54;15.63;;;11.83;;
32407;SDS011;18869;55.970;37.502;2022-11-21T15:02:32;13.53;;;12.13;;
32407;SDS011;18869;55.970;37.502;2022-11-21T15:05:00;12.67;;;10.87;;
32407;SDS011;18869;55.970;37.502;2022-11-21T15:07:38;12.73;;;11.23;;
32407;SDS011;18869;55.970;37.502;2022-11-21T15:10:12;16.27;;;11.80;;
32407;SDS011;18869;55.970;37.502;2022-11-21T15:12:44;16.30;;;10.90;;
32407;SDS011;18869;55.970;37.502;2022-11-21T15:15:18;14.73;;;12.67;;
32407;SDS011;18869;55.970;37.502;2022-11-21T15:17:54;13.67;;;11.17;;
32407;SDS011;18869;55.970;37.502;2022-11-21T15:20:22;16.53;;;11.67;;
32407;SDS011;18869;55.970;37.502;2022-11-21T15:22:53;14.13;;;11.03;;
32407;SDS011;18869;55.970;37.502;2022-11-21T15:25:43;13.47;;;12.07;;
32407;SDS011;18869;55.970;37.502;2022-11-21T15:28:13;17.53;;;11.27;;
32407;SDS011;18869;55.970;37.502;2022-11-21T15:30:42;14.70;;;12.47;;
32407;SDS011;18869;55.970;37.502;2022-11-21T15:33:21;16.57;;;11.43;;
32407;SDS011;18869;55.970;37.502;2022-11-21T15:36:12;13.23;;;11.67;;